Time;durP1;ratioP1;P1;durP2;ratioP2;P2;SDS_P1;SDS_P2;PMS_P1;PMS_P2;Temp;Humidity;BMP_temperature;BMP_pressure;BME280_temperature;BME280_humidity;BME280_pressure;Samples;Min_cycle;Max_cycle;Signal;HPM_P1;HPM_P2
2022/08/28 00:01:29;;;;;;;13.77;4.90;;;;;;;;;;4937021;29;20039;-39
2022/08/28 00:03:55;;;;;;;17.95;5.30;;;;;;;;;;4937035;29;20031;-38
2022/08/28 00:06:20;;;;;;;13.15;5.45;;;;;;;;;;4937245;29;20032;-39
2022/08/28 00:08:46;;;;;;;17.30;5.18;;;;;;;;;;4937201;29;20078;-42
2022/08/28 00:11:12;;;;;;;14.48;5.20;;;;;;;;;;4937086;29;20027;-44
2022/08/28 00:13:37;;;;;;;15.30;4.93;;;;;;;;;;4936597;29;20527;-44
2022/08/28 00:16:03;;;;;;;14.57;5.22;;;;;;;;;;4936984;29;20032;-44
2022/08/28 00:18:30;;;;;;;12.20;5.28;;;;;;;;;;4936698;29;20028;-42
2022/08/28 00:20:57;;;;;;;11.52;4.75;;;;;;;;;;4936676;29;20027;-42
2022/08/28 00:23:24;;;;;;;10.38;5.00;;;;;;;;;;4936651;29;20055;-47
2022/08/28 00:25:50;;;;;;;9.05;5.13;;;;;;;;;;4936558;29;20023;-43
2022/08/28 00:28:16;;;;;;;16.05;5.10;;;;;;;;;;4936511;29;20368;-44
2022/08/28 00:30:47;;;;;;;8.35;4.80;;;;;;;;;;4936487;29;20066;-46
2022/08/28 00:33:39;;;;;;;13.02;4.75;;;;;;;;;;4936726;29;20058;-47
2022/08/28 00:36:04;;;;;;;10.23;5.25;;;;;;;;;;4933718;29;20114;-42
2022/08/28 00:38:30;;;;;;;10.05;4.28;;;;;;;;;;4936457;29;20576;-45
2022/08/28 00:40:59;;;;;;;9.68;4.60;;;;;;;;;;4936357;29;20027;-48
2022/08/28 00:43:37;;;;;;;14.37;5.43;;;;;;;;;;4936284;29;20139;-39
2022/08/28 00:46:09;;;;;;;9.43;4.50;;;;;;;;;;4936087;29;20586;-43
2022/08/28 00:48:35;;;;;;;20.15;5.10;;;;;;;;;;4936253;29;20028;-39
2022/08/28 00:53:46;;;;;;;13.60;5.00;;;;;;;;;;4936156;29;20042;-42
2022/08/28 00:56:13;;;;;;;15.95;5.15;;;;;;;;;;4936081;29;20027;-43
2022/08/28 00:58:42;;;;;;;12.77;4.95;;;;;;;;;;4934705;29;20028;-43
2022/08/28 01:01:08;;;;;;;16.27;5.00;;;;;;;;;;4935965;29;20110;-45
2022/08/28 01:03:35;;;;;;;20.20;5.03;;;;;;;;;;4934778;29;20152;-43
2022/08/28 01:06:01;;;;;;;14.88;4.70;;;;;;;;;;4935936;29;20042;-42
2022/08/28 01:08:30;;;;;;;21.95;6.38;;;;;;;;;;4935836;29;20032;-39
2022/08/28 01:10:59;;;;;;;16.58;5.30;;;;;;;;;;4935848;29;20032;-39
2022/08/28 01:13:26;;;;;;;9.93;4.90;;;;;;;;;;4935799;29;20024;-44
2022/08/28 01:15:52;;;;;;;11.93;5.30;;;;;;;;;;4934521;29;20042;-44
2022/08/28 01:18:19;;;;;;;13.52;4.93;;;;;;;;;;4935647;29;20024;-43
2022/08/28 01:21:16;;;;;;;12.40;5.30;;;;;;;;;;4935619;29;20028;-46
2022/08/28 01:23:49;;;;;;;9.23;5.18;;;;;;;;;;4925716;29;20051;-42
2022/08/28 01:26:14;;;;;;;10.00;5.53;;;;;;;;;;4935972;29;20031;-47
2022/08/28 01:28:40;;;;;;;13.30;5.90;;;;;;;;;;4935552;29;20028;-43
2022/08/28 01:31:09;;;;;;;15.05;5.68;;;;;;;;;;4935540;29;20055;-39
2022/08/28 01:33:34;;;;;;;18.20;5.35;;;;;;;;;;4935438;29;20036;-38
2022/08/28 01:36:00;;;;;;;10.90;6.03;;;;;;;;;;4934265;29;20047;-38
2022/08/28 01:38:26;;;;;;;14.50;6.03;;;;;;;;;;4935378;29;20542;-38
2022/08/28 01:40:53;;;;;;;11.30;5.38;;;;;;;;;;4935395;29;20078;-38
2022/08/28 01:43:25;;;;;;;12.38;5.82;;;;;;;;;;4935318;29;20119;-39
2022/08/28 01:45:54;;;;;;;13.10;6.68;;;;;;;;;;4935313;29;20102;-39
2022/08/28 01:48:23;;;;;;;12.15;6.25;;;;;;;;;;4935276;29;20040;-39
2022/08/28 01:50:49;;;;;;;11.05;6.38;;;;;;;;;;4935604;29;20023;-39
2022/08/28 01:53:19;;;;;;;16.73;6.47;;;;;;;;;;4935127;29;20035;-39
2022/08/28 01:55:45;;;;;;;14.93;6.82;;;;;;;;;;4935299;29;20028;-39
2022/08/28 01:58:11;;;;;;;21.85;6.80;;;;;;;;;;4935265;29;20055;-39
2022/08/28 02:00:37;;;;;;;18.23;7.30;;;;;;;;;;4934066;29;20167;-39
2022/08/28 02:03:03;;;;;;;15.32;7.40;;;;;;;;;;4935237;29;20060;-38
2022/08/28 02:05:31;;;;;;;16.15;7.43;;;;;;;;;;4935078;29;20039;-38
2022/08/28 02:07:58;;;;;;;14.48;6.90;;;;;;;;;;4935195;29;20179;-39
2022/08/28 02:10:25;;;;;;;12.80;7.15;;;;;;;;;;4935192;29;20040;-41
2022/08/28 02:12:52;;;;;;;18.52;7.32;;;;;;;;;;4935283;29;20038;-42
2022/08/28 02:15:18;;;;;;;20.25;7.43;;;;;;;;;;4935341;29;20036;-42
2022/08/28 02:17:44;;;;;;;18.55;7.10;;;;;;;;;;4933829;29;20031;-40
2022/08/28 02:20:10;;;;;;;15.50;6.97;;;;;;;;;;4937960;29;20027;-40
2022/08/28 02:22:35;;;;;;;14.35;7.20;;;;;;;;;;4938951;29;20023;-38
2022/08/28 02:25:03;;;;;;;17.15;7.30;;;;;;;;;;4938884;29;20050;-38
2022/08/28 02:27:29;;;;;;;11.50;7.20;;;;;;;;;;4938770;29;20460;-38
2022/08/28 02:29:57;;;;;;;20.17;7.05;;;;;;;;;;4939026;29;20040;-38
2022/08/28 02:32:26;;;;;;;14.23;6.20;;;;;;;;;;4938890;29;20044;-38
2022/08/28 02:34:52;;;;;;;15.43;6.15;;;;;;;;;;4938698;29;20035;-38
2022/08/28 02:37:19;;;;;;;13.05;6.28;;;;;;;;;;4938717;29;20024;-38
2022/08/28 02:39:45;;;;;;;12.57;5.97;;;;;;;;;;4938504;29;20036;-38
2022/08/28 02:42:10;;;;;;;13.18;5.80;;;;;;;;;;4938803;29;20035;-38
2022/08/28 02:44:36;;;;;;;7.78;5.25;;;;;;;;;;4938562;29;20024;-38
2022/08/28 02:47:02;;;;;;;12.82;5.85;;;;;;;;;;4938279;29;20039;-38
2022/08/28 02:49:29;;;;;;;7.90;5.85;;;;;;;;;;4938466;29;20039;-38
2022/08/28 02:51:56;;;;;;;11.10;5.63;;;;;;;;;;4938256;29;20464;-39
2022/08/28 02:54:22;;;;;;;11.43;5.50;;;;;;;;;;4938547;29;20031;-45
2022/08/28 02:56:48;;;;;;;15.38;5.60;;;;;;;;;;4938235;29;20032;-43
2022/08/28 02:59:14;;;;;;;7.50;4.82;;;;;;;;;;4938187;29;20039;-41
2022/08/28 03:01:39;;;;;;;11.32;5.50;;;;;;;;;;4938446;29;20024;-43
2022/08/28 03:04:05;;;;;;;13.10;5.68;;;;;;;;;;4921210;29;20123;-43
2022/08/28 03:06:31;;;;;;;10.88;5.63;;;;;;;;;;4937135;29;20060;-48
2022/08/28 03:08:58;;;;;;;7.85;5.00;;;;;;;;;;4938261;29;20031;-42
2022/08/28 03:11:24;;;;;;;11.70;5.25;;;;;;;;;;4938211;29;20036;-44
2022/08/28 03:13:50;;;;;;;10.57;5.55;;;;;;;;;;4937824;29;20485;-38
2022/08/28 03:16:15;;;;;;;11.52;5.53;;;;;;;;;;4938109;29;20035;-39
2022/08/28 03:18:41;;;;;;;12.20;4.70;;;;;;;;;;4938109;29;20027;-39
2022/08/28 03:21:07;;;;;;;15.68;5.35;;;;;;;;;;4938075;29;20490;-39
2022/08/28 03:23:34;;;;;;;10.93;5.25;;;;;;;;;;4938053;29;20027;-39
2022/08/28 03:26:06;;;;;;;15.15;5.30;;;;;;;;;;4937682;29;20034;-39
2022/08/28 03:28:39;;;;;;;10.50;5.70;;;;;;;;;;4938007;29;20167;-39
2022/08/28 03:31:06;;;;;;;11.55;5.30;;;;;;;;;;4937086;29;20024;-39
2022/08/28 03:33:32;;;;;;;23.58;5.38;;;;;;;;;;4936401;29;20031;-39
2022/08/28 03:35:58;;;;;;;12.52;4.63;;;;;;;;;;4937525;29;20043;-38
2022/08/28 03:38:24;;;;;;;10.50;4.90;;;;;;;;;;4937525;29;20027;-39
2022/08/28 03:40:50;;;;;;;12.10;4.68;;;;;;;;;;4936320;29;20031;-41
2022/08/28 03:43:20;;;;;;;18.88;5.20;;;;;;;;;;4937671;29;20024;-40
2022/08/28 03:45:56;;;;;;;11.55;4.78;;;;;;;;;;4936184;29;20027;-39
2022/08/28 03:48:23;;;;;;;10.07;4.35;;;;;;;;;;4937293;29;20055;-40
2022/08/28 03:50:51;;;;;;;10.93;4.65;;;;;;;;;;4937338;29;20030;-40
2022/08/28 03:53:17;;;;;;;10.88;4.65;;;;;;;;;;4937089;29;20036;-43
2022/08/28 03:55:43;;;;;;;8.98;4.05;;;;;;;;;;4937431;29;20080;-43
2022/08/28 03:58:08;;;;;;;7.20;4.43;;;;;;;;;;4937144;29;20601;-42
2022/08/28 04:00:34;;;;;;;10.75;4.15;;;;;;;;;;4937378;29;20023;-42
2022/08/28 04:02:59;;;;;;;5.53;4.03;;;;;;;;;;4937095;29;20472;-42
2022/08/28 04:05:25;;;;;;;13.02;4.68;;;;;;;;;;4937063;29;20110;-42
2022/08/28 04:07:52;;;;;;;12.48;4.65;;;;;;;;;;4937001;29;20062;-42
2022/08/28 04:10:18;;;;;;;13.98;4.57;;;;;;;;;;4935985;29;20034;-42
2022/08/28 04:12:44;;;;;;;11.18;4.00;;;;;;;;;;4935618;29;20119;-42
2022/08/28 04:15:11;;;;;;;6.65;4.28;;;;;;;;;;4936820;29;20103;-42
2022/08/28 04:17:38;;;;;;;9.73;4.30;;;;;;;;;;4936797;29;20490;-40
2022/08/28 04:20:06;;;;;;;8.48;3.75;;;;;;;;;;4936782;29;20479;-41
2022/08/28 04:22:31;;;;;;;15.75;4.90;;;;;;;;;;4936925;29;20032;-39
2022/08/28 04:24:57;;;;;;;15.38;4.22;;;;;;;;;;4936963;29;20106;-42
2022/08/28 04:27:23;;;;;;;9.18;3.78;;;;;;;;;;4936550;29;20496;-43
2022/08/28 04:29:48;;;;;;;14.60;4.20;;;;;;;;;;4936645;29;20023;-42
2022/08/28 04:32:14;;;;;;;14.95;4.03;;;;;;;;;;4935222;29;20035;-41
2022/08/28 04:34:39;;;;;;;12.57;4.18;;;;;;;;;;4935223;29;20027;-42
2022/08/28 04:37:05;;;;;;;10.38;3.72;;;;;;;;;;4936369;29;20119;-43
2022/08/28 04:39:31;;;;;;;18.95;4.50;;;;;;;;;;4935162;29;20082;-45
2022/08/28 04:41:57;;;;;;;13.45;4.20;;;;;;;;;;4934453;29;20032;-43
2022/08/28 04:44:22;;;;;;;4.30;3.60;;;;;;;;;;4936269;29;20024;-44
2022/08/28 04:46:48;;;;;;;24.35;3.95;;;;;;;;;;4936064;29;20059;-45
2022/08/28 04:49:14;;;;;;;11.00;3.90;;;;;;;;;;4936189;29;20106;-40
2022/08/28 04:51:40;;;;;;;19.27;3.83;;;;;;;;;;4936174;29;20035;-41
2022/08/28 04:54:06;;;;;;;12.05;3.85;;;;;;;;;;4936051;29;20543;-45
2022/08/28 04:56:32;;;;;;;24.13;4.13;;;;;;;;;;4935938;29;20031;-46
2022/08/28 04:58:59;;;;;;;7.35;3.47;;;;;;;;;;4935983;29;20059;-45
2022/08/28 05:01:25;;;;;;;23.83;4.05;;;;;;;;;;4935949;29;20416;-46
2022/08/28 05:03:56;;;;;;;9.48;3.65;;;;;;;;;;4935891;29;20062;-44
2022/08/28 05:06:25;;;;;;;15.48;4.68;;;;;;;;;;4936202;29;20031;-39
2022/08/28 05:08:54;;;;;;;12.25;3.65;;;;;;;;;;4935899;29;20055;-38
2022/08/28 05:11:21;;;;;;;23.85;3.85;;;;;;;;;;4935858;29;20035;-39
2022/08/28 05:13:48;;;;;;;16.70;4.20;;;;;;;;;;4935948;29;20043;-39
2022/08/28 05:16:15;;;;;;;7.07;3.50;;;;;;;;;;4935775;29;20047;-38
2022/08/28 05:18:41;;;;;;;12.20;3.70;;;;;;;;;;4935659;29;20035;-38
2022/08/28 05:21:19;;;;;;;11.35;3.47;;;;;;;;;;4935651;29;20420;-38
2022/08/28 05:23:45;;;;;;;7.93;3.60;;;;;;;;;;4935912;29;20035;-39
2022/08/28 05:26:15;;;;;;;4.43;3.35;;;;;;;;;;4935875;29;20098;-39
2022/08/28 05:28:41;;;;;;;10.77;3.20;;;;;;;;;;4935673;29;20031;-38
2022/08/28 05:31:12;;;;;;;12.95;3.50;;;;;;;;;;4935526;29;20027;-38
2022/08/28 05:33:38;;;;;;;15.00;4.40;;;;;;;;;;4935697;29;20126;-38
2022/08/28 05:36:06;;;;;;;6.72;3.45;;;;;;;;;;4935478;29;20103;-41
2022/08/28 05:38:33;;;;;;;8.60;3.53;;;;;;;;;;4935387;29;20034;-41
2022/08/28 05:40:59;;;;;;;9.32;3.60;;;;;;;;;;4935351;29;20051;-41
2022/08/28 05:43:25;;;;;;;8.10;3.40;;;;;;;;;;4935236;29;20039;-42
2022/08/28 05:46:08;;;;;;;8.93;3.55;;;;;;;;;;4935542;29;20028;-42
2022/08/28 05:48:35;;;;;;;8.52;3.42;;;;;;;;;;4935643;29;20098;-43
2022/08/28 05:51:09;;;;;;;9.82;3.58;;;;;;;;;;4935215;29;20136;-40
2022/08/28 05:53:40;;;;;;;4.63;3.65;;;;;;;;;;4935054;29;20384;-38
2022/08/28 05:56:06;;;;;;;11.93;3.88;;;;;;;;;;4935213;29;20480;-37
2022/08/28 05:58:33;;;;;;;8.48;3.33;;;;;;;;;;4935225;29;20357;-38
2022/08/28 06:01:15;;;;;;;5.82;3.38;;;;;;;;;;4935451;29;20167;-38
2022/08/28 06:03:43;;;;;;;6.18;3.15;;;;;;;;;;4935092;29;20027;-39
2022/08/28 06:06:10;;;;;;;11.82;3.70;;;;;;;;;;4935011;29;20118;-38
2022/08/28 06:08:36;;;;;;;7.95;3.28;;;;;;;;;;4935070;29;20034;-38
2022/08/28 06:11:04;;;;;;;9.43;2.97;;;;;;;;;;4933786;29;20031;-43
2022/08/28 06:13:30;;;;;;;4.30;3.30;;;;;;;;;;4935187;29;20172;-44
2022/08/28 06:15:55;;;;;;;9.07;3.63;;;;;;;;;;4935071;29;20030;-42
2022/08/28 06:18:21;;;;;;;22.13;4.90;;;;;;;;;;4935045;29;20027;-43
2022/08/28 06:20:47;;;;;;;10.27;4.10;;;;;;;;;;4935279;29;20123;-42
2022/08/28 06:23:17;;;;;;;6.25;3.67;;;;;;;;;;4934975;29;20396;-43
2022/08/28 06:25:47;;;;;;;10.65;3.72;;;;;;;;;;4934986;29;20039;-43
2022/08/28 06:28:15;;;;;;;4.80;2.92;;;;;;;;;;4934980;29;20645;-41
2022/08/28 06:30:42;;;;;;;5.43;3.50;;;;;;;;;;4934998;29;20472;-37
2022/08/28 06:33:08;;;;;;;12.45;3.78;;;;;;;;;;4935021;29;20044;-37
2022/08/28 06:35:39;;;;;;;7.28;4.05;;;;;;;;;;4934916;29;20480;-37
2022/08/28 06:38:05;;;;;;;5.28;4.03;;;;;;;;;;4934943;29;20383;-45
2022/08/28 06:40:30;;;;;;;8.80;3.80;;;;;;;;;;4934896;29;20028;-42
2022/08/28 06:42:55;;;;;;;9.80;4.28;;;;;;;;;;4934840;29;20085;-43
2022/08/28 06:45:21;;;;;;;5.63;2.75;;;;;;;;;;4934796;29;20043;-43
2022/08/28 06:47:46;;;;;;;4.78;3.15;;;;;;;;;;4934572;29;20055;-42
2022/08/28 06:50:12;;;;;;;8.52;3.83;;;;;;;;;;4934782;29;20027;-37
2022/08/28 06:52:38;;;;;;;9.32;4.03;;;;;;;;;;4934589;29;20111;-37
2022/08/28 06:55:03;;;;;;;9.88;3.00;;;;;;;;;;4934729;29;20064;-42
2022/08/28 06:57:30;;;;;;;6.65;3.58;;;;;;;;;;4934941;29;20087;-41
2022/08/28 06:59:56;;;;;;;4.45;2.60;;;;;;;;;;4933505;29;20032;-41
2022/08/28 07:02:22;;;;;;;11.40;2.88;;;;;;;;;;4934651;29;20028;-47
2022/08/28 07:04:52;;;;;;;6.25;2.85;;;;;;;;;;4935265;29;20075;-43
2022/08/28 07:07:18;;;;;;;5.75;2.65;;;;;;;;;;4938080;29;20364;-41
2022/08/28 07:09:44;;;;;;;5.05;3.78;;;;;;;;;;4938044;29;20024;-38
2022/08/28 07:12:12;;;;;;;6.30;3.17;;;;;;;;;;4938136;29;20046;-41
2022/08/28 07:14:37;;;;;;;6.57;3.03;;;;;;;;;;4936698;29;20034;-43
2022/08/28 07:17:03;;;;;;;5.43;2.75;;;;;;;;;;4937896;29;20024;-41
2022/08/28 07:19:29;;;;;;;9.13;3.30;;;;;;;;;;4937898;29;20070;-41
2022/08/28 07:21:54;;;;;;;11.55;3.50;;;;;;;;;;4937529;29;20027;-40
2022/08/28 07:24:20;;;;;;;9.50;3.88;;;;;;;;;;4938010;29;20071;-37
2022/08/28 07:26:46;;;;;;;4.05;2.40;;;;;;;;;;4936417;29;20395;-36
2022/08/28 07:29:13;;;;;;;7.25;3.10;;;;;;;;;;4937962;29;20167;-37
2022/08/28 07:31:44;;;;;;;8.40;3.70;;;;;;;;;;4937551;29;20039;-37
2022/08/28 07:34:12;;;;;;;6.53;3.38;;;;;;;;;;4937495;29;20035;-37
2022/08/28 07:36:38;;;;;;;6.03;2.95;;;;;;;;;;4937702;29;20039;-37
2022/08/28 07:39:06;;;;;;;8.20;3.22;;;;;;;;;;4937480;29;20028;-37
2022/08/28 07:41:34;;;;;;;5.68;3.58;;;;;;;;;;4937420;29;20522;-46
2022/08/28 07:46:44;;;;;;;8.10;3.45;;;;;;;;;;4937201;29;20067;-44
2022/08/28 07:49:11;;;;;;;12.23;3.75;;;;;;;;;;4937556;29;20118;-45
2022/08/28 07:51:37;;;;;;;8.93;3.35;;;;;;;;;;4937211;29;20040;-46
2022/08/28 07:54:03;;;;;;;7.88;3.33;;;;;;;;;;4937075;29;20038;-43
2022/08/28 07:56:30;;;;;;;13.55;3.50;;;;;;;;;;4937287;29;20024;-43
2022/08/28 07:58:57;;;;;;;5.82;3.20;;;;;;;;;;4937421;29;20427;-45
2022/08/28 08:01:23;;;;;;;7.20;3.38;;;;;;;;;;4937334;29;20020;-37
2022/08/28 08:03:50;;;;;;;5.78;3.25;;;;;;;;;;4937053;29;20391;-46
2022/08/28 08:06:16;;;;;;;5.13;3.15;;;;;;;;;;4935734;29;20087;-45
2022/08/28 08:08:41;;;;;;;5.47;3.03;;;;;;;;;;4937182;29;20039;-47
2022/08/28 08:11:10;;;;;;;2.78;2.35;;;;;;;;;;4936636;29;20027;-43
2022/08/28 08:13:38;;;;;;;3.20;2.90;;;;;;;;;;4936684;29;20039;-44
2022/08/28 08:16:10;;;;;;;4.30;2.72;;;;;;;;;;4936552;29;20297;-46
2022/08/28 08:18:40;;;;;;;6.57;2.83;;;;;;;;;;4936659;29;20023;-47
2022/08/28 08:21:10;;;;;;;7.22;3.45;;;;;;;;;;4936638;29;20094;-46
2022/08/28 08:23:37;;;;;;;13.60;2.95;;;;;;;;;;4936608;29;20119;-44
2022/08/28 08:26:05;;;;;;;7.13;3.17;;;;;;;;;;4936798;29;20028;-45
2022/08/28 08:28:33;;;;;;;6.28;3.75;;;;;;;;;;4936521;29;20039;-47
2022/08/28 08:31:11;;;;;;;9.30;3.70;;;;;;;;;;4936484;29;20484;-46
2022/08/28 08:33:39;;;;;;;8.45;3.13;;;;;;;;;;4936448;29;20043;-51
2022/08/28 08:36:06;;;;;;;6.72;3.25;;;;;;;;;;4936459;29;20061;-45
2022/08/28 08:38:32;;;;;;;6.35;3.13;;;;;;;;;;4935127;29;20023;-46
2022/08/28 08:40:59;;;;;;;7.85;3.40;;;;;;;;;;4936353;29;20031;-46
2022/08/28 08:43:28;;;;;;;11.55;3.40;;;;;;;;;;4936285;29;20027;-45
2022/08/28 08:45:53;;;;;;;6.85;3.20;;;;;;;;;;4936312;29;20027;-45
2022/08/28 08:48:34;;;;;;;10.07;2.97;;;;;;;;;;4936149;29;20558;-43
2022/08/28 08:51:20;;;;;;;4.03;3.10;;;;;;;;;;4936173;29;20118;-42
2022/08/28 08:54:04;;;;;;;7.13;3.70;;;;;;;;;;4936042;29;20070;-38
2022/08/28 08:56:29;;;;;;;8.80;3.70;;;;;;;;;;4935876;29;20089;-39
2022/08/28 08:58:57;;;;;;;12.07;3.55;;;;;;;;;;4935324;29;20479;-38
2022/08/28 09:01:40;;;;;;;8.93;3.30;;;;;;;;;;4932901;29;20395;-37
2022/08/28 09:04:30;;;;;;;10.82;3.22;;;;;;;;;;4935844;29;20034;-43
2022/08/28 09:07:09;;;;;;;11.02;3.10;;;;;;;;;;4935752;29;20031;-44
2022/08/28 09:09:49;;;;;;;7.35;3.03;;;;;;;;;;4935762;29;20039;-37
2022/08/28 09:12:25;;;;;;;8.77;2.95;;;;;;;;;;4931414;29;20084;-38
2022/08/28 09:15:13;;;;;;;5.68;2.83;;;;;;;;;;4932370;29;20111;-47
2022/08/28 09:17:51;;;;;;;10.77;2.85;;;;;;;;;;4934347;29;20027;-46
2022/08/28 09:20:29;;;;;;;11.93;3.25;;;;;;;;;;4933931;29;20043;-44
2022/08/28 09:22:54;;;;;;;6.18;2.70;;;;;;;;;;4933977;29;20051;-43
2022/08/28 09:25:57;;;;;;;11.07;3.00;;;;;;;;;;4933895;29;20031;-45
2022/08/28 09:28:34;;;;;;;8.45;3.15;;;;;;;;;;4933824;29;20043;-46
2022/08/28 09:31:05;;;;;;;8.93;2.95;;;;;;;;;;4934196;29;20027;-48
2022/08/28 09:33:36;;;;;;;6.38;2.95;;;;;;;;;;4934197;29;20119;-46
2022/08/28 09:36:31;;;;;;;10.43;2.92;;;;;;;;;;4933813;29;20156;-45
2022/08/28 09:39:06;;;;;;;7.00;3.15;;;;;;;;;;4933732;29;20039;-43
2022/08/28 09:44:57;;;;;;;9.70;2.80;;;;;;;;;;4933751;29;20087;-47
2022/08/28 09:48:01;;;;;;;9.93;2.95;;;;;;;;;;4933582;29;20491;-44
2022/08/28 09:50:38;;;;;;;6.90;3.20;;;;;;;;;;4933665;29;20036;-43
2022/08/28 09:53:10;;;;;;;9.02;3.15;;;;;;;;;;4933402;29;20410;-44
2022/08/28 09:55:57;;;;;;;9.65;3.65;;;;;;;;;;4933655;29;20032;-46
2022/08/28 09:58:32;;;;;;;7.35;3.58;;;;;;;;;;4933545;29;20111;-45
2022/08/28 10:01:09;;;;;;;7.93;3.08;;;;;;;;;;4933888;29;20046;-43
2022/08/28 10:04:00;;;;;;;9.85;3.50;;;;;;;;;;4933350;29;20035;-44
2022/08/28 10:06:33;;;;;;;6.65;2.88;;;;;;;;;;4933450;29;20066;-43
2022/08/28 10:09:43;;;;;;;8.10;3.15;;;;;;;;;;4933711;29;20155;-46
2022/08/28 10:12:14;;;;;;;6.65;3.30;;;;;;;;;;4933453;29;20031;-46
2022/08/28 10:14:59;;;;;;;20.63;3.28;;;;;;;;;;4933481;29;20027;-45
2022/08/28 10:17:28;;;;;;;4.63;3.30;;;;;;;;;;4933415;29;20032;-47
2022/08/28 10:20:11;;;;;;;10.55;3.30;;;;;;;;;;4933514;29;20464;-43
2022/08/28 10:22:55;;;;;;;12.63;3.63;;;;;;;;;;4933659;29;20039;-44
2022/08/28 10:25:32;;;;;;;10.60;3.38;;;;;;;;;;4932915;29;20047;-44
2022/08/28 10:28:04;;;;;;;9.10;3.20;;;;;;;;;;4932930;29;20027;-43
2022/08/28 10:30:34;;;;;;;4.97;3.10;;;;;;;;;;4932903;29;20561;-44
2022/08/28 10:33:38;;;;;;;10.65;3.45;;;;;;;;;;4930521;29;20031;-45
2022/08/28 10:36:26;;;;;;;11.23;3.53;;;;;;;;;;4933656;29;20024;-40
2022/08/28 10:39:26;;;;;;;11.13;3.17;;;;;;;;;;4933080;29;20506;-47
2022/08/28 10:41:59;;;;;;;8.80;3.40;;;;;;;;;;4936047;29;20046;-41
2022/08/28 10:44:51;;;;;;;10.15;3.33;;;;;;;;;;4936396;29;20027;-44
2022/08/28 10:47:18;;;;;;;12.13;3.60;;;;;;;;;;4935381;29;20051;-44
2022/08/28 10:49:47;;;;;;;9.82;3.55;;;;;;;;;;4948677;29;20035;-44
2022/08/28 10:52:19;;;;;;;6.40;3.10;;;;;;;;;;4955786;29;20106;-45
2022/08/28 10:54:53;;;;;;;8.13;3.38;;;;;;;;;;4947151;29;20110;-43
2022/08/28 10:57:31;;;;;;;10.30;3.20;;;;;;;;;;4941967;29;20035;-44
2022/08/28 11:00:02;;;;;;;6.47;3.28;;;;;;;;;;4936490;29;20030;-43
2022/08/28 11:02:29;;;;;;;12.38;3.20;;;;;;;;;;4936845;29;20039;-42
2022/08/28 11:04:56;;;;;;;9.25;3.08;;;;;;;;;;4936724;29;20032;-43
2022/08/28 11:07:36;;;;;;;9.70;3.00;;;;;;;;;;4936694;29;20027;-43
2022/08/28 11:10:21;;;;;;;9.52;3.42;;;;;;;;;;4936434;29;20027;-47
2022/08/28 11:12:50;;;;;;;5.55;3.20;;;;;;;;;;4939327;29;20032;-43
2022/08/28 11:15:28;;;;;;;;;;;;;;;;;;4953049;29;20099;-43
2022/08/28 11:18:16;;;;;;;9.65;3.60;;;;;;;;;;4955234;29;19914;-43
2022/08/28 11:20:54;;;;;;;9.25;3.45;;;;;;;;;;4944848;29;20510;-46
2022/08/28 11:23:51;;;;;;;9.68;3.55;;;;;;;;;;4949035;29;20135;-45
2022/08/28 11:26:28;;;;;;;11.10;3.40;;;;;;;;;;4880509;29;20680;-43
2022/08/28 11:28:54;;;;;;;7.78;3.80;;;;;;;;;;4945691;29;20558;-44
2022/08/28 11:31:30;;;;;;;7.00;3.15;;;;;;;;;;4943236;29;20123;-46
2022/08/28 11:33:58;;;;;;;8.02;3.42;;;;;;;;;;4926614;29;20447;-42
2022/08/28 11:36:28;;;;;;;7.55;3.63;;;;;;;;;;4934584;29;20161;-45
2022/08/28 11:38:54;;;;;;;13.40;4.25;;;;;;;;;;4943381;29;20547;-48
2022/08/28 11:41:30;;;;;;;11.07;3.45;;;;;;;;;;4945020;29;20166;-41
2022/08/28 11:44:13;;;;;;;11.88;4.07;;;;;;;;;;4945170;29;20027;-43
2022/08/28 11:46:48;;;;;;;10.10;3.67;;;;;;;;;;4940021;29;20043;-42
2022/08/28 11:49:23;;;;;;;7.82;3.55;;;;;;;;;;4934693;29;20036;-48
2022/08/28 11:52:07;;;;;;;6.32;3.70;;;;;;;;;;4934265;29;20035;-43
2022/08/28 11:54:48;;;;;;;13.45;4.43;;;;;;;;;;4934974;29;20042;-42
2022/08/28 11:57:50;;;;;;;9.18;3.78;;;;;;;;;;4935603;29;20079;-44
2022/08/28 12:00:37;;;;;;;6.90;3.38;;;;;;;;;;4935646;29;20091;-43
2022/08/28 12:03:11;;;;;;;10.80;3.70;;;;;;;;;;4935716;29;20032;-44
2022/08/28 12:05:40;;;;;;;7.63;4.13;;;;;;;;;;4935658;29;20050;-41
2022/08/28 12:08:08;;;;;;;9.50;3.95;;;;;;;;;;4935338;29;20036;-42
2022/08/28 12:10:33;;;;;;;7.55;3.90;;;;;;;;;;4935029;29;20031;-40
2022/08/28 12:13:03;;;;;;;12.52;4.25;;;;;;;;;;4934799;29;20543;-41
2022/08/28 12:15:32;;;;;;;11.13;3.80;;;;;;;;;;4934879;29;20039;-43
2022/08/28 12:18:41;;;;;;;8.93;3.53;;;;;;;;;;4934949;29;20027;-41
2022/08/28 12:21:20;;;;;;;7.95;3.58;;;;;;;;;;4927969;29;20058;-42
2022/08/28 12:24:18;;;;;;;9.07;3.85;;;;;;;;;;4933836;29;20471;-40
2022/08/28 12:26:50;;;;;;;12.32;4.15;;;;;;;;;;4935055;29;20063;-42
2022/08/28 12:29:33;;;;;;;8.88;3.40;;;;;;;;;;4935048;29;20055;-42
2022/08/28 12:32:56;;;;;;;9.77;3.88;;;;;;;;;;4935199;29;20748;-43
2022/08/28 12:35:28;;;;;;;10.52;3.95;;;;;;;;;;4894413;29;20085;-43
2022/08/28 12:37:54;;;;;;;14.15;4.40;;;;;;;;;;4894651;29;20028;-40
2022/08/28 12:40:24;;;;;;;8.43;3.67;;;;;;;;;;4915025;29;20563;-44
2022/08/28 12:42:52;;;;;;;7.78;3.55;;;;;;;;;;4934717;29;20039;-45
2022/08/28 12:45:25;;;;;;;8.52;3.88;;;;;;;;;;4934710;29;20111;-41
2022/08/28 12:47:54;;;;;;;8.23;4.00;;;;;;;;;;4946968;29;20051;-41
2022/08/28 12:50:30;;;;;;;9.70;3.83;;;;;;;;;;4953812;29;20031;-41
2022/08/28 12:53:00;;;;;;;7.93;3.83;;;;;;;;;;4953824;29;20127;-41
2022/08/28 12:55:26;;;;;;;;;;;;;;;;;;4954381;29;20030;-42
2022/08/28 12:57:52;;;;;;;10.80;4.22;;;;;;;;;;4953527;29;20004;-40
2022/08/28 13:00:21;;;;;;;9.65;4.30;;;;;;;;;;4953611;29;20525;-40
2022/08/28 13:02:50;;;;;;;9.30;4.10;;;;;;;;;;4952749;28;20041;-43
2022/08/28 13:05:36;;;;;;;15.32;4.30;;;;;;;;;;4953504;29;20023;-42
2022/08/28 13:08:06;;;;;;;13.52;3.97;;;;;;;;;;4953324;29;20483;-44
2022/08/28 13:10:47;;;;;;;6.80;3.90;;;;;;;;;;4953102;29;20034;-40
2022/08/28 13:13:38;;;;;;;7.95;3.90;;;;;;;;;;4936303;29;20395;-40
2022/08/28 13:16:07;;;;;;;9.52;4.32;;;;;;;;;;4936478;29;20082;-41
2022/08/28 13:18:38;;;;;;;9.52;4.05;;;;;;;;;;4953254;29;20031;-42
2022/08/28 13:21:22;;;;;;;8.05;4.25;;;;;;;;;;4953502;29;20038;-41
2022/08/28 13:23:51;;;;;;;10.10;4.60;;;;;;;;;;4953177;29;20039;-41
2022/08/28 13:26:23;;;;;;;6.28;4.57;;;;;;;;;;4953442;29;20066;-41
2022/08/28 13:28:51;;;;;;;10.60;4.53;;;;;;;;;;4952281;29;20459;-42
2022/08/28 13:31:34;;;;;;;6.75;4.43;;;;;;;;;;4953113;29;20050;-43
2022/08/28 13:34:23;;;;;;;10.93;4.70;;;;;;;;;;4953211;29;20041;-41
2022/08/28 13:36:53;;;;;;;11.20;4.22;;;;;;;;;;4952988;29;20035;-41
2022/08/28 13:39:20;;;;;;;11.98;3.85;;;;;;;;;;4953043;29;20086;-41
2022/08/28 13:41:52;;;;;;;9.13;4.05;;;;;;;;;;4952830;29;20062;-40
2022/08/28 13:44:24;;;;;;;13.15;3.97;;;;;;;;;;4953137;29;20086;-42
2022/08/28 13:46:50;;;;;;;10.40;4.40;;;;;;;;;;4952678;29;20040;-42
2022/08/28 13:49:15;;;;;;;7.97;4.15;;;;;;;;;;4952916;29;20035;-42
2022/08/28 13:51:41;;;;;;;14.65;4.53;;;;;;;;;;4952743;29;20043;-42
2022/08/28 13:54:06;;;;;;;11.68;4.88;;;;;;;;;;4952843;29;20036;-41
2022/08/28 13:56:32;;;;;;;11.20;4.10;;;;;;;;;;4952656;29;20031;-42
2022/08/28 13:58:58;;;;;;;11.52;4.40;;;;;;;;;;4953264;29;20042;-41
2022/08/28 14:03:34;;;;;;;8.68;4.47;;;;;;;;;;4952751;29;20030;-42
2022/08/28 14:04:09;;;;;;;10.52;4.75;;;;;;;;;;4952588;29;20036;-41
2022/08/28 14:06:35;;;;;;;11.23;4.15;;;;;;;;;;4952942;29;20034;-42
2022/08/28 14:09:00;;;;;;;9.40;4.95;;;;;;;;;;4952637;29;20395;-40
2022/08/28 14:11:26;;;;;;;11.15;3.97;;;;;;;;;;4952658;29;20031;-42
2022/08/28 14:13:52;;;;;;;12.80;4.32;;;;;;;;;;4953580;28;20035;-42
2022/08/28 14:16:17;;;;;;;10.98;4.50;;;;;;;;;;4956869;29;20043;-42
2022/08/28 14:18:43;;;;;;;9.77;4.53;;;;;;;;;;4939141;29;20034;-42
2022/08/28 14:21:08;;;;;;;10.70;4.63;;;;;;;;;;4956524;29;20288;-43
2022/08/28 14:23:34;;;;;;;9.13;4.15;;;;;;;;;;4956647;29;20039;-42
2022/08/28 14:25:59;;;;;;;9.32;4.50;;;;;;;;;;4956412;29;20023;-41
2022/08/28 14:28:25;;;;;;;9.35;4.38;;;;;;;;;;4956348;29;20020;-45
2022/08/28 14:30:50;;;;;;;14.38;4.70;;;;;;;;;;4956261;29;20038;-44
2022/08/28 14:33:18;;;;;;;10.52;5.03;;;;;;;;;;4956421;29;20442;-42
2022/08/28 14:35:44;;;;;;;12.65;4.63;;;;;;;;;;4956167;29;20024;-43
2022/08/28 14:38:11;;;;;;;10.18;4.60;;;;;;;;;;4956282;29;20035;-41
2022/08/28 14:40:41;;;;;;;8.63;4.18;;;;;;;;;;4938891;29;20138;-41
2022/08/28 14:43:11;;;;;;;10.85;4.20;;;;;;;;;;4956118;29;20046;-43
2022/08/28 14:45:46;;;;;;;10.40;4.53;;;;;;;;;;4956051;29;20487;-43
2022/08/28 14:48:13;;;;;;;7.40;4.35;;;;;;;;;;4955873;29;20054;-42
2022/08/28 14:50:41;;;;;;;9.20;4.80;;;;;;;;;;4955905;29;20098;-43
2022/08/28 14:53:08;;;;;;;8.93;4.60;;;;;;;;;;4956050;29;20387;-44
2022/08/28 14:56:00;;;;;;;11.77;4.85;;;;;;;;;;4955826;29;20065;-44
2022/08/28 14:58:25;;;;;;;8.52;4.55;;;;;;;;;;4950992;29;20053;-43
2022/08/28 15:00:51;;;;;;;11.88;4.40;;;;;;;;;;4955732;29;20027;-42
2022/08/28 15:03:18;;;;;;;9.63;4.95;;;;;;;;;;4955895;29;20118;-45
2022/08/28 15:05:44;;;;;;;12.65;4.30;;;;;;;;;;4955707;29;20476;-42